METAR / TAF

Die METAR- und TAF-Liste ist aus technischen Gründen (Verfügbarkeit, Update-Zyklen) nicht für ein Meteo-Briefing gedacht. Benutzen Sie stattdessen skybriefing der Skyguide  oder das TAMSI (MeteoSchweiz-eigene Meteo Selfbriefing-Plattform für Firmen aus der Aviatik; Anfragen über das

Kontaktformular

METAR Switzerland

METAR     LSZH 192120Z 02005KT 350V080 9999 BKN018 01/M03 Q1005
               NOSIG=
METAR     LSZH 192150Z 02005KT 9999 BKN018 01/M03 Q1005 NOSIG=
METAR     LSGG 192120Z 36004KT 320V030 9000 -SN BKN013 BKN015 01/00
               Q1002 R04/5905// NOSIG=
METAR     LSGG 192150Z VRB01KT 9999 BKN012 BKN015 01/00 Q1003
               R04/29//// NOSIG=
METAR     LFSB 192200Z 34004KT 6000 FEW008 OVC030 01/M00 Q1005
               TEMPO 3000 BR OVC010=
METAR     LSZB 192120Z AUTO 32003KT 9999 OVC025 00/M02 Q1003=
METAR     LSZB 192150Z AUTO VRB03KT 9999 BKN024 SCT120 00/M02 Q1003=
METAR     LSZA 192120Z AUTO 01001KT 4500 -RASN BR BKN/// 02/01
               Q1008=
METAR     LSZA 192150Z AUTO VRB02KT 4400 -RASN BR BKN/// 02/01
               Q1008=
METAR     LSZG 192120Z AUTO 07009KT 9999 OVC026 01/M02 Q1004=
METAR     LSZG 192150Z AUTO 07008KT 9999 BKN025 01/M01 Q1004=
METAR     LSZR 192120Z AUTO 11003KT 9999 SCT020 M01/M02 Q1005=
METAR     LSZR 192150Z AUTO 12003KT 9000 NSC M01/M02 Q1005=
METAR     LSGS 192120Z AUTO VRB03KT CAVOK 00/M02 Q1004=
METAR     LSGS 192150Z AUTO 10003KT CAVOK M00/M02 Q1003=
METAR     LSGC 192120Z AUTO 08007KT 040V130 9999 BKN009 SCT100
               M03/M05 Q1000=
METAR     LSGC 192150Z AUTO VRB03KT 9999 BKN009 BKN080 BKN100
               M03/M05 Q1000=
METAR     LSZC 192120Z AUTO VRB03KT 9999 FEW017 OVC022 02/M01 Q1004=
METAR     LSZC 192150Z AUTO 22003KT 9999 OVC024 01/M01 Q1004=
METAR RRA LSZL 192150Z AUTO 10002KT 6000NDV -RA SCT012 SCT056 03/02
               Q1009 RERA RMK=
METAR     LSZL 192120Z NIL=
METAR     LSZS 192120Z AUTO 00000KT 1900 SN BR BKN/// M05/M07 Q1002=
METAR     LSZS 192150Z AUTO VRB02KT 2100 -SN BR BKN/// M05/M06
               Q1002=
METAR RRA LSMA 192120Z AUTO 08004KT 050V110 9999NDV FEW016 SCT019
               OVC023 02/M02 Q1004 RMK=
METAR RRA LSMA 192150Z AUTO 05003KT 010V100 9999NDV FEW017 OVC023
               02/M01 Q1004 RMK=
METAR RRB LSMD 192120Z AUTO 04007KT 010V070 9999NDV FEW017 BKN024
               01/M02 Q1005 RMK=
METAR RRA LSMD 192150Z AUTO 04008KT 010V070 9999NDV BKN024 00/M02
               Q1004 RMK=
METAR RRB LSME 192120Z AUTO 06003KT 010V110 9999NDV FEW018 OVC025
               01/M02 Q1004 RMK=
METAR RRA LSME 192150Z AUTO 05005KT 020V080 9999NDV FEW017 OVC023
               01/M02 Q1004 RMK=
METAR RRB LSMM 192120Z AUTO VRB06KT 9999NDV FEW019 01/M03 Q1003 RMK=
METAR RRA LSMM 192150Z AUTO 35008G27KT 300V060 9999NDV NCD 01/M03
               Q1002 RMK=
METAR RRB LSMP 192120Z AUTO 06007KT 7000NDV BKN021 BKN027 M00/M01
               Q1003 RMK=
METAR RRA LSMP 192150Z AUTO 06007KT 020V080 7000NDV FEW011 SCT023
               BKN027 M00/M01 Q1003 RMK=
METAR     LSMS 192120Z AUTO VRB03KT CAVOK 00/M02 Q1004=
METAR     LSMS 192150Z AUTO 10003KT CAVOK M00/M02 Q1003=
Updated on Monday, 19 November 2018, 23:10

TAF Switzerland

TAF     LSZH 192025Z 1921/2103 04008KT 9999 BKN020 TX02/2014Z
             TNM01/2006Z BECMG 1921/1923 VRB03KT BECMG 1922/2001
             BKN012 PROB40 2001/2009 4000 BR BKN008 BECMG
             2010/2012 BKN016 PROB40 2013/2019 05006KT FEW020
             BECMG 2020/2023 4000 BR BKN011 PROB40 2100/2103
             OVC006=
TAF     LSGG 192025Z 1921/2103 03005KT 4500 -SN BKN010 TX04/2015Z
             TN00/2006Z TEMPO 1921/2010 2000 SN VV002 BECMG
             2012/2014 9999 NSW BKN050=
TAF RRA LFSB 191700Z 1918/2018 VRB02KT 4000 BR SCT008 BKN025 BECMG
             1918/1922 2500 BKN005 PROB30 TEMPO 1918/1922 0200
             FZFG VV/// BECMG 2010/2014 CAVOK=
TAF AAB LFSB 192127Z 1921/2018 VRB02KT 6000 BKN025 TEMPO 1921/2010
             3000 BR OVC010 PROB40 TEMPO 2000/2010 OVC003 BECMG
             2010/2012 CAVOK=
TAF AAC LSGS 192012Z 1920/1924 CNL=
TAF     LSGS 191425Z 1915/1924 VRB03KT 9999 FEW010 SCT040 BKN070
             PROB30 TEMPO 1915/1924 4500 RASN BKN014 OVC025=
TAF AAI LSZA 192050Z 1920/1924 CNL=
TAF AAA LSZA 191803Z 1918/1924 VRB03KT 6000 -RA FEW008 SCT015
             BKN020 TEMPO 1918/1924 4000 RA BKN014 PROB40 TEMPO
             1918/1924 3000 RASN BKN010=
TAF     LSZA 191425Z 1915/1924 VRB03KT 6000 -RA FEW008 SCT015
             BKN020 TEMPO 1915/1924 4000 RA BKN014 PROB40 TEMPO
             1921/1924 3000 RASN BKN010=
TAF AAD LSZB 192050Z 1920/1924 CNL=
TAF     LSZB 191425Z 1915/1924 VRB03KT 6000 SCT020 BKN030 TEMPO
             1915/1918 04007KT 4000 -SN PROB40 1921/1924 BKN014=
TAF AAE LSZG 192050Z 1920/1924 CNL=
TAF     LSZG 191425Z 1915/1924 06010KT 2000 -SN VV008 PROB40 TEMPO
             1915/1918 0800 SN VV003 BECMG 1917/1920 8000 NSW
             BKN015 PROB40 1919/1924 4000 BKN012=
TAF     LSZL 191725Z 1918/2003 VRB02KT 6000 -RA FEW005 BKN015 TEMPO
             1918/2003 4000 RA BKN012=
TAF AAF LSZR 192050Z 1920/1924 CNL=
TAF     LSZR 191425Z 1915/1924 04011KT 9999 BKN025 BECMG 1917/1919
             VRB03KT BECMG 1919/1922 BKN012=
TAF AAB LSGC 192011Z 1920/1924 CNL=
TAF     LSGC 191425Z 1915/1924 05010KT 8000 -SN OVC007 TEMPO
             1915/1924 1200 SN VV002=
TAF AAH LSZC 192050Z 1920/1924 CNL=
TAF     LSZC 191425Z 1915/1924 36005KT 9999 SCT012 BKN020 PROB30
             TEMPO 1915/1918 4000 -SN BKN012=
TAF AAG LSZS 192050Z 1920/1924 CNL=
TAF     LSZS 191425Z 1915/1924 20005KT 8000 FEW010 BKN025
             TXM04/1915Z TEMPO 1915/1924 3000 -SN VV015 PROB30
             TEMPO 1915/1924 1200 SN VV010=
TAF     LSMA 191625Z 1917/2023 04010KT 9999 SCT015 BKN020 BECMG
             1918/1921 VRB03KT BECMG 1920/1923 OVC012 PROB40
             2000/2009 4000 BR OVC008 PROB40 2012/2019 FEW020=
TAF     LSMD 191625Z 1917/2023 05011KT 9999 OVC030 BECMG 1919/1922
             VRB03KT BECMG 1921/1924 BKN014 PROB40 2000/2010 4000
             BR BKN008 BECMG 2010/2012 BKN020 BECMG 2019/2022 4000
             BR OVC011=
TAF     LSME 191625Z 1917/2023 VRB03KT 9999 OVC018 BECMG 1922/2001
             OVC012 PROB40 2001/2009 4000 BR OVC008 PROB40
             2013/2019 FEW020=
TAF     LSMM 191625Z 1917/2023 05012KT 9999 SCT020 BECMG 1917/1920
             VRB03KT BECMG 1921/1924 OVC014 PROB40 2000/2009 4000
             BR OVC009 BECMG 2010/2013 FEW020 BECMG 2020/2023 2000
             BCFG NSC=
TAF     LSMP 191625Z 1917/2023 04012KT 2500 -SN OVC014 PROB30 TEMPO
             1917/1920 1400 SN OVC005 BECMG 1920/1923 VRB03KT NSW
             PROB40 1921/2007 4500 BR OVC003 BECMG 2007/2010 8000
             BKN020=
Updated on Monday, 19 November 2018, 23:03